Fulton County Airport Brown Field
KFTY : now visible

Airfield :











YOU CAN JOIN US ON...

 
LOGIN :

Register | Disclaimer

   EN    FR    IT 

 









Legend :    VFR   Marginal VFR   IFR   Intensive IFR   Very Intensive IFR
Visi :
Ceiling :
>= 8 km
>= 3000ft
5 to 8 km
1000 to 3000 ft
1500m to 5 km
500 to 1000 ft
800 to 1500m
200 to 500 ft
< 800m
< 200 ft
Symbols :   Thunderstorms  Fog  Heavy snow  Heavy precipitations  Wind > 20 kt






- Airport Elevation : 841 ft


KFTY - Fulton County Brown Field

CURRENT METAR :
  • 190853Z 19003KT 10SM CLR 22/20 A3004 RMK AO2 SLP161 T02220200 58008

EXPIRED METARs :
  • 190753Z 21003KT 10SM CLR 23/20 A3006 RMK AO2 SLP167 T02280200
  • 190653Z 00000KT 10SM CLR 23/20 A3007 RMK AO2 SLP171 T02280200

TAF KFTY
Valid from the 19 at 06:00 until the 20 at 06:00 UTC


190554Z 1906/2006 22005KT P6SM FEW050 BKN200
FM191200 22005KT P6SM BKN050 BKN100
FM191500 21008KT P6SM VCSH SCT025 BKN040 OVC080
FM191800 19010G18KT P6SM VCSH SCT012 OVC020
PROB30 1918/1920 5SM -SHRA BR OVC015
FM192000 16010G18KT 4SM SHRA BR BKN009 OVC015
FM200100 13009KT 3SM SHRA BR OVC007
KZTL FIR / North America



MET'MAP, your aeronautical weather chart ! - Copyright ORBIFLY December 2007 - Disclaimer

ORBIFLY MET'MAP TEAM :

Programming & Development : Alexandra Zaïnal
Concept & original design : Baudouin d'Aumeries
Assistance for programming : Marc-Olivier Méhu
Technical & hardware support : Manuel Goepfert

Contact : metmap@orbifly.com




SOURCES & CREDITS :

   NOAA       Earth
Advisory